Wetterdaten: Woche 27.10.03 - 02.11.03 (KW44)
Datum Zeit Temperatur Luftfeuchte Luftdruck Regenmenge Wind Richtung Taupunkt Windchill
27.10.2003 00:00 -2.8 C 89 % 1014.9 hPa 0.0 l/m 0.0 km/h (0 Bft) N -4.3 C -2.8 C
27.10.2003 01:00 -2.8 C 90 % 1014.9 hPa 0.0 l/m 0.9 km/h (0 Bft) O-SO -4.3 C -2.9 C
27.10.2003 02:00 -2.1 C 96 % 1014.9 hPa 0.0 l/m 0.0 km/h (0 Bft) N -2.6 C -2.1 C
27.10.2003 03:00 -2.2 C 96 % 1015.7 hPa 0.0 l/m 0.1 km/h (0 Bft) N -2.7 C -2.2 C
27.10.2003 04:00 -2.5 C 96 % 1016.0 hPa 0.0 l/m 0.0 km/h (0 Bft) N -3.0 C -2.5 C
27.10.2003 05:00 -2.8 C 99 % 1016.0 hPa 0.0 l/m 0.3 km/h (0 Bft) NW -2.9 C -2.8 C
27.10.2003 06:00 -3.1 C 100 % 1016.6 hPa 0.0 l/m 0.9 km/h (0 Bft) O-SO -3.1 C -3.4 C
27.10.2003 07:00 -3.1 C 100 % 1017.0 hPa 0.0 l/m 0.7 km/h (0 Bft) O-SO -3.1 C -3.1 C
27.10.2003 08:00 -2.7 C 100 % 1017.8 hPa 0.0 l/m 0.3 km/h (0 Bft) O-SO -2.7 C -2.7 C
27.10.2003 09:00 -1.5 C 100 % 1018.3 hPa 0.0 l/m 0.0 km/h (0 Bft) N -1.5 C -1.5 C
27.10.2003 10:00 -0.4 C 98 % 1018.7 hPa 0.0 l/m 0.8 km/h (0 Bft) NW -0.7 C -0.6 C
27.10.2003 11:00 2.3 C 84 % 1018.6 hPa 0.0 l/m 2.6 km/h (1 Bft) NW -0.3 C 1.7 C
27.10.2003 12:00 6.2 C 58 % 1018.1 hPa 0.0 l/m 6.7 km/h (2 Bft) NW -1.7 C 5.0 C
27.10.2003 13:00 8.1 C 46 % 1018.1 hPa 0.0 l/m 11.8 km/h (2 Bft) O-SO -2.9 C 6.2 C
27.10.2003 14:00 8.4 C 45 % 1018.1 hPa 0.0 l/m 10.0 km/h (2 Bft) O-SO -2.8 C 6.9 C
27.10.2003 15:00 8.2 C 40 % 1018.1 hPa 0.0 l/m 6.4 km/h (2 Bft) O -4.5 C 7.3 C
27.10.2003 16:00 7.2 C 43 % 1018.1 hPa 0.0 l/m 5.1 km/h (1 Bft) O -4.6 C 6.4 C
27.10.2003 17:00 4.7 C 53 % 1018.1 hPa 0.0 l/m 0.4 km/h (0 Bft) N -4.0 C 4.6 C
27.10.2003 18:00 2.2 C 70 % 1019.1 hPa 0.0 l/m 1.5 km/h (1 Bft) O -2.7 C 2.0 C
27.10.2003 19:00 0.6 C 79 % 1019.1 hPa 0.0 l/m 0.0 km/h (0 Bft) N -2.6 C 0.6 C
27.10.2003 20:00 -0.0 C 78 % 1019.1 hPa 0.0 l/m 0.0 km/h (0 Bft) N -3.3 C -0.0 C
27.10.2003 21:00 -0.8 C 84 % 1019.1 hPa 0.0 l/m 0.1 km/h (0 Bft) O -3.2 C -0.8 C
27.10.2003 22:00 -1.5 C 86 % 1019.1 hPa 0.0 l/m 2.3 km/h (1 Bft) O -3.5 C -2.3 C
27.10.2003 23:00 -2.0 C 87 % 1019.4 hPa 0.0 l/m 1.2 km/h (1 Bft) O-SO -3.9 C -2.1 C
28.10.2003 00:00 -2.3 C 88 % 1020.1 hPa 0.0 l/m 4.8 km/h (1 Bft) O -4.0 C -4.0 C
28.10.2003 01:00 -2.9 C 89 % 1020.1 hPa 0.0 l/m 0.4 km/h (0 Bft) O-SO -4.4 C -2.9 C
28.10.2003 02:00 -3.4 C 89 % 1020.1 hPa 0.0 l/m 1.3 km/h (1 Bft) O -5.0 C -3.7 C
28.10.2003 03:00 -3.4 C 89 % 1020.1 hPa 0.0 l/m 2.4 km/h (1 Bft) O -4.9 C -3.9 C
28.10.2003 04:00 -4.0 C 88 % 1020.1 hPa 0.0 l/m 0.0 km/h (0 Bft) N -5.7 C -4.0 C
28.10.2003 05:00 -4.2 C 87 % 1020.1 hPa 0.0 l/m 1.3 km/h (1 Bft) O-SO -6.0 C -4.5 C
28.10.2003 06:00 -4.3 C 86 % 1020.1 hPa 0.0 l/m 0.0 km/h (0 Bft) N -6.2 C -4.3 C
28.10.2003 07:00 -2.9 C 94 % 1020.1 hPa 0.0 l/m 0.1 km/h (0 Bft) SO -3.7 C -2.9 C
28.10.2003 08:00 -2.6 C 97 % 1020.1 hPa 0.0 l/m 5.5 km/h (1 Bft) O-SO -3.0 C -4.4 C
28.10.2003 09:00 -2.0 C 98 % 1020.1 hPa 0.0 l/m 3.3 km/h (1 Bft) O-SO -2.3 C -2.9 C
28.10.2003 10:00 -0.7 C 96 % 1020.1 hPa 0.0 l/m 3.2 km/h (1 Bft) O-SO -1.3 C -1.6 C
28.10.2003 11:00 1.2 C 88 % 1019.3 hPa 0.0 l/m 5.5 km/h (1 Bft) SO -0.5 C -0.3 C
28.10.2003 12:00 3.7 C 76 % 1018.2 hPa 0.0 l/m 5.1 km/h (1 Bft) O-SO -0.2 C 2.5 C
28.10.2003 13:00 5.7 C 68 % 1017.3 hPa 0.0 l/m 7.5 km/h (2 Bft) SO 0.3 C 4.2 C
28.10.2003 14:00 6.7 C 59 % 1016.4 hPa 0.0 l/m 3.1 km/h (1 Bft) SO -0.8 C 6.3 C
28.10.2003 15:00 6.7 C 60 % 1016.0 hPa 0.0 l/m 2.7 km/h (1 Bft) SO -0.6 C 6.3 C
28.10.2003 16:00 5.3 C 67 % 1015.1 hPa 0.0 l/m 0.4 km/h (0 Bft) SO -0.4 C 5.3 C
28.10.2003 17:00 3.2 C 81 % 1014.9 hPa 0.0 l/m 3.3 km/h (1 Bft) O 0.2 C 2.5 C
28.10.2003 18:00 1.7 C 86 % 1014.9 hPa 0.0 l/m 7.0 km/h (2 Bft) O -0.4 C -0.3 C
28.10.2003 19:00 0.7 C 90 % 1014.4 hPa 0.0 l/m 0.4 km/h (0 Bft) O -0.8 C 0.7 C
28.10.2003 20:00 -0.2 C 90 % 1013.9 hPa 0.0 l/m 2.1 km/h (1 Bft) O -1.6 C -0.8 C
28.10.2003 21:00 -0.5 C 91 % 1013.4 hPa 0.0 l/m 2.6 km/h (1 Bft) O -1.8 C -1.2 C
28.10.2003 22:00 -0.1 C 93 % 1012.8 hPa 0.0 l/m 0.0 km/h (0 Bft) N -1.1 C -0.1 C
28.10.2003 23:00 0.4 C 94 % 1012.4 hPa 0.0 l/m 1.6 km/h (1 Bft) O-SO -0.4 C 0.1 C
29.10.2003 00:00 1.1 C 97 % 1011.6 hPa 0.0 l/m 1.9 km/h (1 Bft) O-SO 0.6 C 0.5 C
29.10.2003 01:00 1.4 C 98 % 1011.0 hPa 0.4 l/m 0.5 km/h (0 Bft) O-NO 1.1 C 1.4 C
29.10.2003 02:00 1.6 C 99 % 1010.6 hPa 0.0 l/m 0.1 km/h (0 Bft) O 1.5 C 1.6 C
29.10.2003 03:00 1.8 C 100 % 1009.7 hPa 0.4 l/m 0.0 km/h (0 Bft) N 1.8 C 1.8 C
29.10.2003 04:00 2.0 C 100 % 1008.8 hPa 0.0 l/m 0.0 km/h (0 Bft) N 2.0 C 2.0 C
29.10.2003 05:00 2.1 C 100 % 1008.1 hPa 0.0 l/m 0.5 km/h (0 Bft) O-NO 2.1 C 2.0 C
29.10.2003 06:00 2.2 C 100 % 1007.2 hPa 0.0 l/m 0.0 km/h (0 Bft) N 2.2 C 2.2 C
29.10.2003 07:00 2.1 C 100 % 1006.3 hPa 0.0 l/m 0.6 km/h (0 Bft) N 2.1 C 2.0 C
29.10.2003 08:00 2.6 C 100 % 1005.3 hPa 0.0 l/m 0.1 km/h (0 Bft) N 2.6 C 2.6 C
29.10.2003 09:00 3.4 C 99 % 1004.6 hPa 0.0 l/m 0.7 km/h (0 Bft) O 3.3 C 3.3 C
29.10.2003 10:00 4.6 C 94 % 1004.5 hPa 0.0 l/m 1.8 km/h (1 Bft) SO 3.8 C 4.3 C
29.10.2003 11:00 4.9 C 89 % 1004.1 hPa 0.0 l/m 1.3 km/h (1 Bft) N-NW 3.3 C 4.7 C
29.10.2003 12:00 5.7 C 87 % 1003.4 hPa 0.0 l/m 7.3 km/h (2 Bft) SO 3.7 C 4.3 C
29.10.2003 13:00 5.9 C 88 % 1002.4 hPa 0.0 l/m 2.7 km/h (1 Bft) S-SO 4.1 C 5.4 C
29.10.2003 14:00 6.2 C 91 % 1002.2 hPa 0.0 l/m 0.4 km/h (0 Bft) W 4.8 C 6.2 C
29.10.2003 15:00 6.5 C 95 % 1001.4 hPa 0.0 l/m 0.9 km/h (0 Bft) W 5.7 C 6.4 C
29.10.2003 16:00 5.9 C 99 % 1001.1 hPa 1.1 l/m 0.1 km/h (0 Bft) N 5.7 C 5.9 C
29.10.2003 17:00 6.0 C 100 % 1001.4 hPa 1.8 l/m 6.4 km/h (2 Bft) W-NW 6.0 C 4.7 C
29.10.2003 18:00 6.1 C 95 % 1000.6 hPa 0.0 l/m 8.5 km/h (2 Bft) W-NW 5.3 C 4.6 C
29.10.2003 19:00 5.1 C 94 % 1000.4 hPa 0.0 l/m 2.2 km/h (1 Bft) NW 4.2 C 4.7 C
29.10.2003 20:00 4.4 C 98 % 999.6 hPa 0.0 l/m 3.8 km/h (1 Bft) W-NW 4.2 C 3.7 C
29.10.2003 21:00 3.5 C 96 % 999.2 hPa 0.0 l/m 0.0 km/h (0 Bft) N 2.9 C 3.5 C
29.10.2003 22:00 3.0 C 98 % 998.3 hPa 0.0 l/m 0.0 km/h (0 Bft) N 2.7 C 3.0 C
29.10.2003 23:00 2.7 C 100 % 997.5 hPa 0.0 l/m 0.0 km/h (0 Bft) N 2.7 C 2.7 C
30.10.2003 00:00 2.0 C 100 % 997.2 hPa 0.0 l/m 1.5 km/h (1 Bft) W-NW 2.0 C 1.7 C
30.10.2003 01:00 2.1 C 100 % 996.5 hPa 0.7 l/m 0.0 km/h (0 Bft) N 2.1 C 2.1 C
30.10.2003 02:00 2.1 C 100 % 995.7 hPa 0.7 l/m 0.0 km/h (0 Bft) N 2.1 C 2.1 C
30.10.2003 03:00 2.4 C 100 % 995.2 hPa 1.1 l/m 2.3 km/h (1 Bft) O-SO 2.4 C 1.8 C
30.10.2003 04:00 3.3 C 100 % 995.2 hPa 0.7 l/m 9.8 km/h (2 Bft) SO 3.3 C 0.8 C
30.10.2003 05:00 3.8 C 100 % 995.0 hPa 0.4 l/m 12.5 km/h (3 Bft) S-SO 3.8 C 1.0 C
30.10.2003 06:00 4.2 C 100 % 994.7 hPa 0.4 l/m 8.9 km/h (2 Bft) SO 4.2 C 2.3 C
30.10.2003 07:00 4.6 C 100 % 995.2 hPa 0.0 l/m 1.7 km/h (1 Bft) W 4.6 C 4.4 C
30.10.2003 08:00 5.1 C 100 % 995.9 hPa 0.0 l/m 0.8 km/h (0 Bft) W 5.0 C 4.9 C
30.10.2003 09:00 5.3 C 96 % 996.2 hPa 0.0 l/m 11.8 km/h (2 Bft) W-NW 4.7 C 3.4 C
30.10.2003 10:00 6.0 C 80 % 997.0 hPa 0.0 l/m 24.4 km/h (4 Bft) W-NW 2.7 C 1.9 C
30.10.2003 11:00 6.3 C 71 % 997.2 hPa 0.0 l/m 31.9 km/h (5 Bft) W-NW 1.4 C 1.7 C
30.10.2003 12:00 6.6 C 62 % 997.4 hPa 0.0 l/m 33.1 km/h (5 Bft) W-NW -0.2 C 2.0 C
30.10.2003 13:00 7.6 C 51 % 997.2 hPa 0.0 l/m 28.6 km/h (4 Bft) W-NW -2.0 C 3.7 C
30.10.2003 14:00 8.3 C 53 % 997.0 hPa 0.0 l/m 21.0 km/h (4 Bft) W-NW -0.8 C 5.3 C
30.10.2003 15:00 7.8 C 59 % 996.2 hPa 0.0 l/m 13.4 km/h (3 Bft) SW 0.3 C 5.7 C
30.10.2003 16:00 6.8 C 59 % 996.2 hPa 0.0 l/m 8.6 km/h (2 Bft) W -0.5 C 5.4 C
30.10.2003 17:00 4.6 C 69 % 995.7 hPa 0.0 l/m 5.1 km/h (1 Bft) SO -0.6 C 3.6 C
30.10.2003 18:00 2.9 C 82 % 995.2 hPa 0.0 l/m 3.5 km/h (1 Bft) S 0.1 C 2.0 C
30.10.2003 19:00 2.7 C 87 % 994.5 hPa 0.0 l/m 6.1 km/h (2 Bft) O 0.7 C 1.0 C
30.10.2003 20:00 2.5 C 90 % 994.1 hPa 0.0 l/m 1.9 km/h (1 Bft) O 0.9 C 2.1 C
30.10.2003 21:00 2.6 C 92 % 993.4 hPa 0.0 l/m 0.0 km/h (0 Bft) N 1.4 C 2.6 C
30.10.2003 22:00 2.9 C 94 % 993.1 hPa 0.4 l/m 0.0 km/h (0 Bft) N 2.0 C 2.9 C
30.10.2003 23:00 2.8 C 96 % 992.2 hPa 1.1 l/m 0.0 km/h (0 Bft) N 2.3 C 2.8 C
31.10.2003 00:00 2.9 C 99 % 992.0 hPa 0.7 l/m 0.0 km/h (0 Bft) N 2.7 C 2.9 C
31.10.2003 01:00 3.0 C 100 % 991.6 hPa 1.1 l/m 0.9 km/h (0 Bft) SO 3.0 C 2.8 C
31.10.2003 02:00 3.1 C 100 % 991.0 hPa 0.4 l/m 0.0 km/h (0 Bft) N 3.1 C 3.1 C
31.10.2003 03:00 3.2 C 100 % 990.1 hPa 0.0 l/m 1.3 km/h (1 Bft) S 3.2 C 2.9 C
31.10.2003 04:00 3.1 C 99 % 989.7 hPa 0.0 l/m 0.7 km/h (0 Bft) S-SO 3.0 C 3.0 C
31.10.2003 05:00 3.1 C 100 % 988.9 hPa 0.7 l/m 1.1 km/h (0 Bft) SO 3.1 C 3.0 C
31.10.2003 06:00 2.8 C 100 % 988.9 hPa 0.0 l/m 0.4 km/h (0 Bft) NO 2.8 C 2.8 C
31.10.2003 07:00 2.7 C 100 % 988.9 hPa 0.0 l/m 2.3 km/h (1 Bft) O-SO 2.7 C 2.1 C
31.10.2003 08:00 3.4 C 100 % 987.9 hPa 0.0 l/m 5.5 km/h (1 Bft) O-SO 3.4 C 1.9 C
31.10.2003 09:00 4.8 C 98 % 987.7 hPa 0.0 l/m 3.1 km/h (1 Bft) O-SO 4.5 C 4.2 C
31.10.2003 10:00 5.8 C 91 % 986.8 hPa 0.0 l/m 4.7 km/h (1 Bft) O 4.4 C 4.9 C
31.10.2003 11:00 7.1 C 83 % 985.8 hPa 0.0 l/m 4.6 km/h (1 Bft) O 4.4 C 6.3 C
31.10.2003 12:00 7.9 C 78 % 985.3 hPa 0.0 l/m 8.7 km/h (2 Bft) O-SO 4.2 C 6.4 C
31.10.2003 13:00 8.3 C 76 % 984.1 hPa 0.0 l/m 5.5 km/h (1 Bft) O-SO 4.3 C 7.5 C
31.10.2003 14:00 8.3 C 77 % 983.7 hPa 0.0 l/m 0.6 km/h (0 Bft) O-NO 4.5 C 8.3 C
31.10.2003 15:00 8.3 C 80 % 982.7 hPa 0.0 l/m 0.1 km/h (0 Bft) NO 5.0 C 8.3 C
31.10.2003 16:00 7.7 C 87 % 981.7 hPa 0.0 l/m 0.0 km/h (0 Bft) N 5.6 C 7.7 C
31.10.2003 17:00 6.8 C 93 % 981.6 hPa 0.0 l/m 0.4 km/h (0 Bft) N-NO 5.8 C 6.8 C
31.10.2003 18:00 6.3 C 95 % 981.6 hPa 0.0 l/m 1.6 km/h (1 Bft) N-NO 5.5 C 6.1 C
31.10.2003 19:00 6.1 C 96 % 981.7 hPa 0.0 l/m 2.2 km/h (1 Bft) O-SO 5.5 C 5.7 C
31.10.2003 20:00 6.2 C 94 % 983.3 hPa 0.0 l/m 5.3 km/h (1 Bft) O-SO 5.3 C 5.1 C
31.10.2003 21:00 7.8 C 82 % 984.9 hPa 0.0 l/m 11.0 km/h (2 Bft) W-NW 5.0 C 6.1 C
31.10.2003 22:00 8.2 C 78 % 986.0 hPa 0.0 l/m 14.1 km/h (3 Bft) W-NW 4.6 C 6.0 C
31.10.2003 23:00 7.6 C 81 % 986.9 hPa 0.0 l/m 8.3 km/h (2 Bft) W-NW 4.7 C 6.2 C
01.11.2003 00:00 7.0 C 88 % 987.9 hPa 1.1 l/m 1.5 km/h (1 Bft) W-NW 5.1 C 6.7 C
01.11.2003 01:00 6.7 C 97 % 989.0 hPa 1.1 l/m 3.7 km/h (1 Bft) SO 6.2 C 6.2 C
01.11.2003 02:00 6.6 C 99 % 989.9 hPa 1.1 l/m 4.1 km/h (1 Bft) S 6.4 C 5.9 C
01.11.2003 03:00 6.5 C 100 % 990.6 hPa 0.4 l/m 5.8 km/h (1 Bft) S-SO 6.5 C 5.4 C
01.11.2003 04:00 6.2 C 100 % 991.2 hPa 0.4 l/m 7.4 km/h (2 Bft) S-SO 6.2 C 4.8 C
01.11.2003 05:00 5.9 C 100 % 992.0 hPa 0.0 l/m 1.6 km/h (1 Bft) S 5.9 C 5.8 C
01.11.2003 06:00 5.7 C 100 % 993.0 hPa 1.4 l/m 3.5 km/h (1 Bft) SO 5.7 C 5.1 C
01.11.2003 07:00 5.6 C 100 % 993.6 hPa 1.4 l/m 2.1 km/h (1 Bft) SO 5.6 C 5.3 C
01.11.2003 08:00 5.7 C 100 % 995.5 hPa 0.0 l/m 0.6 km/h (0 Bft) SO 5.7 C 5.6 C
01.11.2003 09:00 6.0 C 100 % 996.5 hPa 0.0 l/m 0.4 km/h (0 Bft) S 6.0 C 6.0 C
01.11.2003 10:00 7.0 C 99 % 997.4 hPa 0.0 l/m 3.2 km/h (1 Bft) S-SO 6.9 C 6.6 C
01.11.2003 11:00 8.0 C 92 % 998.3 hPa 0.0 l/m 7.7 km/h (2 Bft) O-SO 6.8 C 6.7 C
01.11.2003 12:00 9.0 C 83 % 998.3 hPa 0.0 l/m 4.5 km/h (1 Bft) SO 6.1 C 8.5 C
01.11.2003 13:00 9.7 C 78 % 998.3 hPa 0.0 l/m 3.3 km/h (1 Bft) W-NW 6.0 C 9.5 C
01.11.2003 14:00 11.0 C 69 % 998.3 hPa 0.0 l/m 4.3 km/h (1 Bft) SO 5.4 C 10.9 C
01.11.2003 15:00 10.9 C 64 % 999.3 hPa 0.0 l/m 0.8 km/h (0 Bft) W 4.3 C 10.9 C
01.11.2003 16:00 10.0 C 66 % 999.8 hPa 0.0 l/m 2.7 km/h (1 Bft) O 4.0 C 10.0 C
01.11.2003 17:00 8.0 C 82 % 1000.5 hPa 0.0 l/m 5.1 km/h (1 Bft) O 5.0 C 7.2 C
01.11.2003 18:00 6.6 C 89 % 1001.4 hPa 0.0 l/m 3.2 km/h (1 Bft) O 4.9 C 6.1 C
01.11.2003 19:00 6.0 C 94 % 1002.4 hPa 0.0 l/m 1.5 km/h (1 Bft) O 5.0 C 5.7 C
01.11.2003 20:00 6.0 C 97 % 1003.2 hPa 0.0 l/m 0.4 km/h (0 Bft) O 5.6 C 5.9 C
01.11.2003 21:00 5.6 C 96 % 1003.9 hPa 0.0 l/m 1.6 km/h (1 Bft) O 5.0 C 5.4 C
01.11.2003 22:00 5.7 C 99 % 1004.5 hPa 0.0 l/m 3.3 km/h (1 Bft) O 5.6 C 5.1 C
01.11.2003 23:00 5.8 C 100 % 1005.0 hPa 0.0 l/m 0.6 km/h (0 Bft) O 5.7 C 5.7 C
02.11.2003 00:00 5.8 C 100 % 1005.6 hPa 0.0 l/m 0.0 km/h (0 Bft) N 5.8 C 5.8 C
02.11.2003 01:00 5.8 C 100 % 1005.8 hPa 0.0 l/m 0.0 km/h (0 Bft) N 5.8 C 5.8 C
02.11.2003 02:00 5.4 C 100 % 1006.6 hPa 0.0 l/m 0.5 km/h (0 Bft) O 5.4 C 5.3 C
02.11.2003 03:00 5.8 C 100 % 1006.7 hPa 0.0 l/m 1.0 km/h (0 Bft) O 5.8 C 5.8 C
02.11.2003 04:00 6.1 C 100 % 1007.6 hPa 0.4 l/m 4.8 km/h (1 Bft) O 6.1 C 5.3 C
02.11.2003 05:00 6.3 C 100 % 1007.9 hPa 0.0 l/m 3.1 km/h (1 Bft) S-SO 6.3 C 5.9 C
02.11.2003 06:00 6.3 C 100 % 1008.7 hPa 0.0 l/m 1.0 km/h (0 Bft) S-SW 6.3 C 6.1 C
02.11.2003 07:00 6.5 C 98 % 1009.6 hPa 0.0 l/m 1.3 km/h (1 Bft) S-SW 6.1 C 6.3 C
02.11.2003 08:00 6.6 C 92 % 1009.9 hPa 0.0 l/m 3.2 km/h (1 Bft) W-NW 5.4 C 6.1 C
02.11.2003 09:00 7.2 C 84 % 1010.8 hPa 0.0 l/m 2.6 km/h (1 Bft) W 4.7 C 6.8 C
02.11.2003 10:00 7.9 C 75 % 1010.8 hPa 0.0 l/m 13.4 km/h (3 Bft) W-NW 3.7 C 5.8 C
02.11.2003 11:00 8.9 C 70 % 1011.2 hPa 0.0 l/m 8.4 km/h (2 Bft) W-NW 3.7 C 7.7 C
02.11.2003 12:00 9.7 C 68 % 1010.8 hPa 0.0 l/m 5.6 km/h (1 Bft) W-NW 4.2 C 9.0 C
02.11.2003 13:00 9.7 C 71 % 1010.8 hPa 0.0 l/m 0.1 km/h (0 Bft) N 4.7 C 9.7 C
02.11.2003 14:00 10.1 C 67 % 1010.8 hPa 0.0 l/m 0.1 km/h (0 Bft) N 4.1 C 10.1 C
02.11.2003 15:00 10.9 C 60 % 1010.8 hPa 0.0 l/m 1.0 km/h (0 Bft) W-SW 3.5 C 10.9 C
02.11.2003 16:00 9.4 C 70 % 1010.8 hPa 0.0 l/m 2.5 km/h (1 Bft) S 4.2 C 9.2 C
02.11.2003 17:00 6.9 C 85 % 1010.9 hPa 0.0 l/m 4.7 km/h (1 Bft) O 4.6 C 6.0 C
02.11.2003 18:00 5.8 C 89 % 1011.8 hPa 0.0 l/m 5.7 km/h (1 Bft) O-SO 4.1 C 4.7 C
02.11.2003 19:00 4.3 C 92 % 1011.8 hPa 0.0 l/m 0.3 km/h (0 Bft) O 3.1 C 4.3 C
02.11.2003 20:00 3.7 C 94 % 1011.8 hPa 0.0 l/m 1.8 km/h (1 Bft) O 2.8 C 3.4 C
02.11.2003 21:00 3.2 C 93 % 1012.6 hPa 0.0 l/m 0.7 km/h (0 Bft) O 2.2 C 3.1 C
02.11.2003 22:00 2.4 C 93 % 1012.8 hPa 0.0 l/m 0.5 km/h (0 Bft) O 1.4 C 2.3 C
02.11.2003 23:00 2.0 C 93 % 1012.8 hPa 0.0 l/m 0.2 km/h (0 Bft) O 0.9 C 1.9 C
Min-Datum _ 28.10.03 27.10.03 31.10.03 - 27.10.03 - 28.10.03 28.10.03
_ Min-Zeit 06:27 15:08 16:08 - 00:00 - 06:27 03:21
Minimum _ -4.7 C 39 % 981.6 hPa - 0.0 km/h (0 Bft) - -6.7 C -7.1 C
Max-Datum _ 01.11.03 27.10.03 28.10.03 29.10.03 30.10.03 - 01.11.03 01.11.03
_ Max-Zeit 14:35 05:35 06:00 16:00 13:50 - 10:33 14:35
Maximum _ 11.9 C 100 % 1020.1 hPa 1.8 l/m 54.8 km/h
W-NW (7 Bft)
- 7.3 C 11.9 C
Durchschnitt _ 4.0 C 88 % 1004.0 hPa #19.0 l/m 3.6 km/h (1 Bft) O 2.0 C 3.4 C

Durchschnitt Minimum Temp.3.5 C
Durchschnitt Maximum Temp.4.6 C
© Kaiko 2003